Home   Weather   Sweden   Borås   Past weeks
Flag for Sweden

Past Weather in Borås, Sweden — Yesterday and Last 2 Weeks

Currently: 70 °F. Passing clouds. (Weather station: Gothenburg / Landvetter, Sweden). See more current weather

Past Weather in Borås — Graph

°F

Borås Temperature Yesterday

Maximum temperature yesterday: 73 °F (at 1:20 pm)
Minimum temperature yesterday: 48 °F (at 4:20 am)
Average temperature yesterday: 63 °F

High & Low Weather Summary for the Past Weeks

 TemperatureHumidityPressure
High75 °F (May 15, 3:20 pm)100% (May 10, 12:20 am)30.30 "Hg (May 10, 12:20 am)
Low39 °F (May 6, 11:20 pm)25% (May 17, 3:20 pm)29.62 "Hg (May 5, 6:20 pm)
Average56 °F61%30.08 "Hg
* Reported May 5 10:20 am — May 20 10:20 am, Borås. Weather by CustomWeather, © 2024

Note: Actual official high and low records may vary slightly from our data, if they occured in-between our weather recording intervals... More about our weather records

Borås Weather History for the Previous 24 Hours

Scroll right to see more
 ConditionsComfort  
Time TempWeatherWind HumidityBarometerVisibility
10:20 am
Mon, May 20
66 °FSunny.10 mph52%30.01 "Hg10 mi
9:50 am64 °FPassing clouds.8 mph56%29.98 "HgN/A
9:20 am63 °FSunny.9 mph59%29.98 "Hg10 mi
8:50 am61 °FSunny.9 mph63%29.98 "Hg10 mi
8:20 am59 °FSunny.10 mph63%29.98 "Hg10 mi
7:50 am59 °FSunny.13 mph63%29.95 "Hg10 mi
7:20 am57 °FSunny.12 mph63%29.95 "Hg10 mi
6:50 am57 °FSunny.10 mph59%29.95 "Hg10 mi
6:20 am55 °FSunny.10 mph63%29.95 "Hg10 mi
5:50 am54 °FSunny.9 mph63%29.92 "Hg10 mi
5:20 am57 °FSunny.9 mph51%29.92 "Hg10 mi
4:50 am52 °FSunny.8 mph67%29.92 "Hg10 mi
4:20 am52 °FClear.9 mph67%29.92 "Hg10 mi
3:50 am52 °FClear.10 mph72%29.92 "Hg10 mi
3:20 am52 °FClear.8 mph72%29.92 "Hg10 mi
2:50 am52 °FClear.9 mph72%29.89 "Hg10 mi
2:20 am54 °FClear.7 mph67%29.89 "Hg10 mi
1:50 am54 °FClear.7 mph67%29.89 "Hg10 mi
1:20 am55 °FClear.8 mph63%29.89 "Hg10 mi
12:50 am55 °FClear.10 mph63%29.89 "Hg10 mi
12:20 am57 °FClear.8 mph59%29.89 "Hg10 mi
11:50 pm
Sun, May 19
59 °FClear.9 mph55%29.89 "Hg10 mi
11:20 pm59 °FClear.8 mph55%29.89 "Hg10 mi
10:50 pm59 °FClear.8 mph55%29.89 "Hg10 mi
10:20 pm63 °FClear.7 mph49%29.86 "Hg10 mi
9:50 pm64 °FClear.7 mph46%29.86 "Hg10 mi
9:20 pm64 °FSunny.7 mph46%29.86 "Hg10 mi
8:50 pm66 °FSunny.8 mph43%29.86 "Hg10 mi
8:20 pm68 °FSunny.10 mph40%29.86 "Hg10 mi
7:50 pm68 °FSunny.10 mph40%29.86 "Hg10 mi
7:20 pm70 °FPassing clouds.9 mph40%29.86 "HgN/A
6:50 pm70 °FSunny.9 mph38%29.86 "Hg10 mi
6:20 pm72 °FSunny.9 mph36%29.86 "Hg10 mi
5:50 pm72 °FPassing clouds.9 mph36%29.86 "HgN/A
5:20 pm72 °FSunny.10 mph36%29.86 "Hg10 mi
4:50 pm72 °FPassing clouds.12 mph38%29.86 "HgN/A
4:20 pm73 °FPassing clouds.12 mph36%29.86 "HgN/A
3:20 pm73 °FPassing clouds.9 mph41%29.89 "HgN/A
2:50 pm70 °FPassing clouds.10 mph43%29.89 "HgN/A
1:50 pm70 °FPassing clouds.7 mph50%29.89 "HgN/A
1:20 pm73 °FSunny.3 mph38%29.89 "Hg10 mi
12:50 pm72 °FSunny.3 mph41%29.89 "Hg10 mi
12:20 pm72 °FSunny.2 mph41%29.89 "Hg10 mi
11:50 am70 °FPassing clouds.3 mph40%29.92 "HgN/A
11:20 am70 °FSunny.6 mph40%29.92 "Hg10 mi
Weather by CustomWeather, © 2024

See weather overview